Time;durP1;ratioP1;P1;durP2;ratioP2;P2;SDS_P1;SDS_P2;PMS_P1;PMS_P2;Temp;Humidity;BMP_temperature;BMP_pressure;BME280_temperature;BME280_humidity;BME280_pressure;Samples;Min_cycle;Max_cycle;Signal;HPM_P1;HPM_P2
2023/01/23 00:01:42;;;;;;;66.40;30.83;;;3.60;99.90;;;;;;4767864;30;20242;-87
2023/01/23 00:04:11;;;;;;;76.30;30.40;;;3.60;99.90;;;;;;4769040;30;20219;-87
2023/01/23 00:06:36;;;;;;;72.32;30.50;;;3.70;99.90;;;;;;4764865;30;20231;-87
2023/01/23 00:09:02;;;;;;;73.17;31.77;;;3.70;99.90;;;;;;4769621;30;20239;-88
2023/01/23 00:11:29;;;;;;;81.13;31.77;;;3.70;99.90;;;;;;4770836;29;20267;-87
2023/01/23 00:13:55;;;;;;;72.43;31.52;;;3.60;82.70;;;;;;4778272;29;20630;-87
2023/01/23 00:16:23;;;;;;;69.43;30.58;;;3.60;83.90;;;;;;4765573;30;20794;-88
2023/01/23 00:18:50;;;;;;;77.63;31.92;;;3.60;99.90;;;;;;4765022;30;20282;-87
2023/01/23 00:21:19;;;;;;;80.90;28.75;;;3.60;99.90;;;;;;4780935;29;20565;-87
2023/01/23 00:23:48;;;;;;;68.57;30.85;;;3.60;99.90;;;;;;4765547;30;20304;-87
2023/01/23 00:26:16;;;;;;;81.82;33.08;;;3.60;99.90;;;;;;4766151;30;20208;-88
2023/01/23 00:28:42;;;;;;;75.03;31.13;;;3.70;99.90;;;;;;4766840;30;20207;-87
2023/01/23 00:31:14;;;;;;;79.47;29.63;;;3.70;99.90;;;;;;4766505;30;20619;-87
2023/01/23 00:33:41;;;;;;;76.65;31.55;;;3.70;99.90;;;;;;4763127;30;20215;-87
2023/01/23 00:36:07;;;;;;;82.32;30.38;;;3.70;99.90;;;;;;4770963;30;20632;-87
2023/01/23 00:38:32;;;;;;;74.75;31.63;;;3.80;99.90;;;;;;4766132;30;20195;-88
2023/01/23 00:40:58;;;;;;;73.17;29.30;;;3.80;99.90;;;;;;4772314;30;20259;-87
2023/01/23 00:43:24;;;;;;;82.57;28.87;;;3.80;99.90;;;;;;4772360;30;20219;-86
2023/01/23 00:45:50;;;;;;;69.57;28.80;;;3.70;99.90;;;;;;4766040;30;20202;-87
2023/01/23 00:48:16;;;;;;;74.03;29.20;;;3.70;99.90;;;;;;4777555;29;20196;-87
2023/01/23 00:50:41;;;;;;;76.40;28.40;;;3.60;99.90;;;;;;4766124;30;20199;-87
2023/01/23 00:53:07;;;;;;;63.43;30.07;;;3.60;99.90;;;;;;4765716;30;20210;-87
2023/01/23 00:55:33;;;;;;;69.50;29.23;;;3.60;99.90;;;;;;4764997;30;20219;-87
2023/01/23 00:57:58;;;;;;;71.07;28.30;;;3.60;99.90;;;;;;4775297;30;20217;-87
2023/01/23 01:00:24;;;;;;;78.53;30.07;;;3.60;99.90;;;;;;4788921;30;20247;-86
2023/01/23 01:02:50;;;;;;;61.08;27.88;;;3.60;99.90;;;;;;4786294;30;20505;-87
2023/01/23 01:05:17;;;;;;;71.00;30.63;;;3.60;99.90;;;;;;4771508;30;20195;-87
2023/01/23 01:07:46;;;;;;;79.38;27.90;;;3.60;99.90;;;;;;4765740;30;20230;-87
2023/01/23 01:10:12;;;;;;;68.15;28.50;;;3.60;99.90;;;;;;4774126;30;20237;-88
2023/01/23 01:12:38;;;;;;;70.35;28.70;;;3.60;99.90;;;;;;4768264;30;20208;-87
2023/01/23 01:15:05;;;;;;;69.25;27.83;;;3.60;99.90;;;;;;4770293;30;20188;-87
2023/01/23 01:17:30;;;;;;;73.63;31.15;;;3.60;99.90;;;;;;4766868;30;20211;-86
2023/01/23 01:19:56;;;;;;;67.10;27.00;;;3.60;99.90;;;;;;4774996;29;20191;-87
2023/01/23 01:22:21;;;;;;;69.97;26.90;;;3.60;99.90;;;;;;4766925;29;20882;-87
2023/01/23 01:24:47;;;;;;;81.73;29.23;;;3.60;99.90;;;;;;4788804;29;20273;-87
2023/01/23 01:27:12;;;;;;;78.07;30.17;;;3.60;99.90;;;;;;4769336;30;20219;-88
2023/01/23 01:29:38;;;;;;;65.47;26.97;;;3.60;99.90;;;;;;4769871;30;20196;-87
2023/01/23 01:32:03;;;;;;;74.73;30.13;;;3.60;99.90;;;;;;4768141;30;20215;-86
2023/01/23 01:34:29;;;;;;;58.60;26.93;;;3.60;99.90;;;;;;4770467;30;20226;-86
2023/01/23 01:36:55;;;;;;;65.20;27.93;;;3.60;99.90;;;;;;4770473;30;20223;-87
2023/01/23 01:39:20;;;;;;;70.50;30.27;;;3.60;99.90;;;;;;4767566;30;20491;-87
2023/01/23 01:41:49;;;;;;;75.93;29.87;;;3.60;99.90;;;;;;4768577;30;20205;-86
2023/01/23 01:44:19;;;;;;;60.17;25.90;;;3.60;99.90;;;;;;4768465;30;20253;-87
2023/01/23 01:46:45;;;;;;;55.85;26.45;;;3.70;99.90;;;;;;4768436;30;20219;-87
2023/01/23 01:49:32;;;;;;;56.93;27.57;;;3.70;99.90;;;;;;4769454;30;20240;-87
2023/01/23 01:52:04;;;;;;;56.58;27.30;;;3.70;99.90;;;;;;4769831;30;20195;-87
2023/01/23 01:54:38;;;;;;;62.60;27.63;;;3.70;99.90;;;;;;4767933;30;20195;-88
2023/01/23 01:57:27;;;;;;;66.30;26.92;;;3.70;99.90;;;;;;4767924;30;20195;-88
2023/01/23 02:00:14;;;;;;;59.90;26.83;;;3.70;99.90;;;;;;4756847;30;20236;-87
2023/01/23 02:02:54;;;;;;;54.30;25.30;;;3.70;99.90;;;;;;4766653;30;20259;-87
2023/01/23 02:05:44;;;;;;;62.22;25.52;;;3.70;99.90;;;;;;4769471;30;20211;-87
2023/01/23 02:08:31;;;;;;;59.15;27.00;;;3.80;99.90;;;;;;4769311;30;20199;-87
2023/01/23 02:11:00;;;;;;;56.50;26.83;;;3.80;99.90;;;;;;4768918;30;20278;-87
2023/01/23 02:13:32;;;;;;;52.38;24.98;;;3.80;99.90;;;;;;4767354;30;20214;-87
2023/01/23 02:16:00;;;;;;;53.92;25.25;;;3.80;99.90;;;;;;4766713;30;20232;-87
2023/01/23 02:18:28;;;;;;;57.13;25.25;;;3.80;99.90;;;;;;4767112;30;20551;-87
2023/01/23 02:20:55;;;;;;;58.53;26.90;;;3.80;99.90;;;;;;4768769;30;20195;-87
2023/01/23 02:23:45;;;;;;;53.35;24.98;;;3.80;99.90;;;;;;4768365;30;20216;-87
2023/01/23 02:26:27;;;;;;;63.92;27.77;;;3.80;99.90;;;;;;4769258;30;20227;-87
2023/01/23 02:28:54;;;;;;;56.28;26.13;;;3.70;99.90;;;;;;4768479;30;20188;-86
2023/01/23 02:31:21;;;;;;;53.20;26.70;;;3.60;99.90;;;;;;4766310;30;20196;-86
2023/01/23 02:33:50;;;;;;;60.60;27.27;;;3.60;99.90;;;;;;4766910;30;20216;-87
2023/01/23 02:36:18;;;;;;;54.30;26.40;;;3.50;99.90;;;;;;4767864;30;20242;-86
2023/01/23 02:38:51;;;;;;;49.60;24.20;;;3.50;99.90;;;;;;4769333;30;20192;-87
2023/01/23 02:41:21;;;;;;;56.97;27.50;;;3.50;99.90;;;;;;4766960;30;20560;-87
2023/01/23 02:43:49;;;;;;;55.80;26.15;;;3.50;99.90;;;;;;4768297;30;20211;-87
2023/01/23 02:46:16;;;;;;;48.13;25.30;;;3.50;99.90;;;;;;4766257;30;20247;-87
2023/01/23 02:48:43;;;;;;;55.55;26.08;;;3.50;99.90;;;;;;4768409;30;20186;-87
2023/01/23 02:51:08;;;;;;;49.75;26.15;;;3.50;99.90;;;;;;4786449;29;20183;-86
2023/01/23 02:53:34;;;;;;;39.80;21.67;;;3.60;99.90;;;;;;4768014;30;20221;-87
2023/01/23 02:55:59;;;;;;;54.03;25.53;;;3.60;99.90;;;;;;4769511;30;20223;-87
2023/01/23 03:01:10;;;;;;;40.50;21.40;;;3.60;99.90;;;;;;4766039;30;20210;-86
2023/01/23 03:03:35;;;;;;;42.97;22.90;;;3.60;99.90;;;;;;4766571;30;20631;-87
2023/01/23 03:06:02;;;;;;;48.23;22.70;;;3.60;99.90;;;;;;4769159;30;20223;-88
2023/01/23 03:08:33;;;;;;;39.08;20.30;;;3.60;99.90;;;;;;4768535;30;20735;-87
2023/01/23 03:11:03;;;;;;;40.30;21.30;;;3.60;99.90;;;;;;4785223;29;20218;-87
2023/01/23 03:13:29;;;;;;;41.72;20.95;;;3.50;99.90;;;;;;4767146;30;20245;-87
2023/01/23 03:15:56;;;;;;;36.63;20.70;;;3.50;99.90;;;;;;4769304;30;20192;-87
2023/01/23 03:18:22;;;;;;;34.58;18.67;;;3.50;99.90;;;;;;4766619;30;20656;-87
2023/01/23 03:20:48;;;;;;;40.28;20.98;;;3.60;99.90;;;;;;4766984;30;20206;-88
2023/01/23 03:23:13;;;;;;;33.80;20.07;;;3.60;99.90;;;;;;4768750;30;22049;-87
2023/01/23 03:25:42;;;;;;;32.53;18.97;;;3.60;99.90;;;;;;4767167;30;20275;-87
2023/01/23 03:30:11;;;;;;;36.70;20.40;;;3.60;99.90;;;;;;4769575;30;20194;-87
2023/01/23 03:30:53;;;;;;;30.95;18.98;;;3.60;99.90;;;;;;4769021;30;20277;-87
2023/01/23 03:33:19;;;;;;;31.50;19.03;;;3.50;99.90;;;;;;4770782;30;20665;-87
2023/01/23 03:35:44;;;;;;;40.17;19.90;;;3.40;99.90;;;;;;4764208;30;20249;-87
2023/01/23 03:38:10;;;;;;;34.17;19.20;;;3.40;99.90;;;;;;4768627;30;20223;-87
2023/01/23 03:43:22;;;;;;;33.97;18.52;;;3.30;99.90;;;;;;4767813;30;20715;-87
2023/01/23 03:45:49;;;;;;;34.25;19.80;;;3.30;99.90;;;;;;4781274;29;20203;-87
2023/01/23 03:48:15;;;;;;;33.00;18.92;;;3.30;99.90;;;;;;4766077;30;20198;-87
2023/01/23 03:50:44;;;;;;;32.57;19.10;;;3.40;99.90;;;;;;4768341;30;20208;-87
2023/01/23 03:53:09;;;;;;;32.60;17.13;;;3.40;99.90;;;;;;4765969;30;20226;-89
2023/01/23 03:55:35;;;;;;;33.60;19.93;;;3.40;99.90;;;;;;4767353;30;20817;-87
2023/01/23 03:58:00;;;;;;;33.40;18.37;;;3.50;99.90;;;;;;4770476;30;20688;-87
2023/01/23 04:00:26;;;;;;;30.70;18.67;;;3.50;99.90;;;;;;4767023;30;20206;-86
2023/01/23 04:02:51;;;;;;;32.80;18.03;;;3.50;99.90;;;;;;4767213;30;20587;-87
2023/01/23 04:05:17;;;;;;;30.03;17.83;;;3.50;99.90;;;;;;4768566;30;20192;-87
2023/01/23 04:07:43;;;;;;;34.97;18.70;;;3.60;99.90;;;;;;4767392;30;20215;-87
2023/01/23 04:10:09;;;;;;;31.90;18.40;;;3.60;99.90;;;;;;4764413;30;20184;-87
2023/01/23 04:12:34;;;;;;;29.43;18.73;;;3.60;99.90;;;;;;4766614;30;20223;-87
2023/01/23 04:14:59;;;;;;;27.83;16.87;;;3.60;99.90;;;;;;4764940;30;20481;-87
2023/01/23 04:17:25;;;;;;;34.77;17.20;;;3.60;99.90;;;;;;4767835;30;20216;-87
2023/01/23 04:19:51;;;;;;;27.77;16.70;;;3.60;99.90;;;;;;4769365;30;20272;-87
2023/01/23 04:22:17;;;;;;;31.77;20.13;;;3.50;99.90;;;;;;4781095;29;20280;-87
2023/01/23 04:24:42;;;;;;;31.57;17.10;;;3.40;99.90;;;;;;4765763;30;20199;-87
2023/01/23 04:27:08;;;;;;;33.67;19.63;;;3.40;99.90;;;;;;4767855;30;20643;-88
2023/01/23 04:29:33;;;;;;;33.90;18.67;;;3.40;99.90;;;;;;4767343;30;20214;-86
2023/01/23 04:31:59;;;;;;;28.80;17.60;;;3.40;99.90;;;;;;4773939;30;20199;-87
2023/01/23 04:34:24;;;;;;;33.20;19.40;;;3.40;99.90;;;;;;4786989;30;20194;-88
2023/01/23 04:36:50;;;;;;;31.67;17.10;;;3.40;99.90;;;;;;4783294;30;20696;-87
2023/01/23 04:39:15;;;;;;;30.47;17.63;;;3.30;99.90;;;;;;4766771;30;20199;-86
2023/01/23 04:41:41;;;;;;;30.17;18.40;;;3.40;99.90;;;;;;4770524;30;20220;-87
2023/01/23 04:44:21;;;;;;;29.13;16.87;;;3.40;99.90;;;;;;4766669;30;20239;-87
2023/01/23 04:46:52;;;;;;;32.30;17.27;;;3.40;99.90;;;;;;4765367;30;20219;-87
2023/01/23 04:49:20;;;;;;;34.30;19.75;;;3.40;99.90;;;;;;4766418;30;20187;-87
2023/01/23 04:51:47;;;;;;;34.63;18.58;;;3.40;99.90;;;;;;4766051;30;20195;-87
2023/01/23 04:54:13;;;;;;;34.72;18.58;;;3.40;99.90;;;;;;4766786;30;20406;-87
2023/01/23 04:56:38;;;;;;;27.53;16.13;;;3.40;99.90;;;;;;4780829;29;20732;-86
2023/01/23 04:59:04;;;;;;;30.73;18.07;;;3.40;99.90;;;;;;4765324;30;20507;-87
2023/01/23 05:01:29;;;;;;;33.30;19.40;;;3.40;99.90;;;;;;4766410;30;20188;-88
2023/01/23 05:03:55;;;;;;;29.10;17.37;;;3.40;99.90;;;;;;4765350;30;20215;-87
2023/01/23 05:06:21;;;;;;;30.60;18.90;;;3.30;99.90;;;;;;4766736;30;20211;-87
2023/01/23 05:08:46;;;;;;;36.07;19.10;;;3.30;99.90;;;;;;4767819;30;20202;-87
2023/01/23 05:11:12;;;;;;;37.30;19.60;;;3.30;99.90;;;;;;4766558;30;20207;-87
2023/01/23 05:13:37;;;;;;;32.43;19.50;;;3.30;99.90;;;;;;4762059;30;20220;-87
2023/01/23 05:16:03;;;;;;;31.10;16.77;;;3.40;99.90;;;;;;4766384;30;20220;-86
2023/01/23 05:18:29;;;;;;;30.10;16.60;;;3.40;99.90;;;;;;4766884;30;20203;-86
2023/01/23 05:20:54;;;;;;;31.20;19.47;;;3.40;99.90;;;;;;4765784;30;20954;-87
2023/01/23 05:23:20;;;;;;;33.40;19.20;;;3.40;99.90;;;;;;4767482;30;20585;-87
2023/01/23 05:25:45;;;;;;;32.83;19.80;;;3.40;99.90;;;;;;4767205;30;20208;-86
2023/01/23 05:28:11;;;;;;;30.87;18.30;;;3.40;99.90;;;;;;4795034;29;20184;-88
2023/01/23 05:30:37;;;;;;;28.27;17.93;;;3.40;99.90;;;;;;4783163;30;20204;-87
2023/01/23 05:33:02;;;;;;;29.60;17.90;;;3.40;99.90;;;;;;4787218;30;20485;-88
2023/01/23 05:35:28;;;;;;;31.83;18.23;;;3.30;99.90;;;;;;4786221;30;20184;-88
2023/01/23 05:37:54;;;;;;;32.07;18.00;;;3.30;99.90;;;;;;4787156;30;20224;-87
2023/01/23 05:40:19;;;;;;;31.77;18.07;;;3.30;99.90;;;;;;4786562;30;20214;-88
2023/01/23 05:42:46;;;;;;;27.70;16.87;;;3.40;99.90;;;;;;4770413;30;20216;-87
2023/01/23 05:45:12;;;;;;;33.30;18.15;;;3.30;99.90;;;;;;4771041;30;20534;-87
2023/01/23 05:47:38;;;;;;;27.87;17.13;;;3.30;99.90;;;;;;4768967;30;20260;-87
2023/01/23 05:50:06;;;;;;;32.00;18.83;;;3.30;99.90;;;;;;4770469;30;20878;-87
2023/01/23 05:52:32;;;;;;;26.98;16.45;;;3.30;99.90;;;;;;4770293;30;20369;-87
2023/01/23 05:54:58;;;;;;;32.80;18.48;;;3.30;99.90;;;;;;4768900;30;20329;-87
2023/01/23 05:57:24;;;;;;;27.57;16.77;;;3.20;99.90;;;;;;4770677;30;20318;-87
2023/01/23 05:59:49;;;;;;;32.70;17.87;;;3.20;99.90;;;;;;4769942;30;20681;-87
2023/01/23 06:02:15;;;;;;;29.27;17.83;;;3.20;99.90;;;;;;4769194;30;20271;-87
2023/01/23 06:04:45;;;;;;;29.50;16.97;;;3.20;99.90;;;;;;4766493;30;20207;-87
2023/01/23 06:07:13;;;;;;;32.95;18.27;;;3.10;99.90;;;;;;4770478;30;20211;-87
2023/01/23 06:09:38;;;;;;;32.65;18.25;;;3.10;99.90;;;;;;4769573;30;20231;-87
2023/01/23 06:12:04;;;;;;;31.07;17.07;;;3.10;99.90;;;;;;4769485;30;20219;-87
2023/01/23 06:14:30;;;;;;;28.73;17.60;;;3.00;99.90;;;;;;4782043;29;20188;-87
2023/01/23 06:16:55;;;;;;;30.93;17.20;;;3.00;99.90;;;;;;4770342;30;20207;-86
2023/01/23 06:19:21;;;;;;;28.70;17.80;;;3.00;99.90;;;;;;4769060;30;20291;-86
2023/01/23 06:21:46;;;;;;;32.43;18.70;;;3.00;99.90;;;;;;4768664;30;20199;-87
2023/01/23 06:24:12;;;;;;;30.20;16.97;;;3.00;99.90;;;;;;4775289;30;20198;-87
2023/01/23 06:26:37;;;;;;;30.33;17.90;;;3.00;99.90;;;;;;4768150;30;20227;-86
2023/01/23 06:29:03;;;;;;;27.63;17.80;;;3.00;99.90;;;;;;4769819;30;20195;-87
2023/01/23 06:31:31;;;;;;;31.00;18.53;;;3.00;99.90;;;;;;4769415;30;20196;-88
2023/01/23 06:33:57;;;;;;;28.38;17.55;;;3.10;99.90;;;;;;4770010;30;20204;-87
2023/01/23 06:36:23;;;;;;;30.85;16.65;;;3.10;99.90;;;;;;4780122;29;20195;-87
2023/01/23 06:38:48;;;;;;;35.50;18.67;;;3.20;99.90;;;;;;4769403;30;20204;-86
2023/01/23 06:41:14;;;;;;;31.27;18.03;;;3.20;99.90;;;;;;4769953;30;20950;-87
2023/01/23 06:43:39;;;;;;;29.73;17.07;;;3.20;99.90;;;;;;4766549;30;20627;-87
2023/01/23 06:46:08;;;;;;;31.50;18.00;;;3.20;99.90;;;;;;4766915;30;20237;-87
2023/01/23 06:48:33;;;;;;;30.90;18.83;;;3.20;99.90;;;;;;4767297;30;20199;-86
2023/01/23 06:51:00;;;;;;;29.73;17.70;;;3.20;99.90;;;;;;4766983;30;20195;-87
2023/01/23 06:53:26;;;;;;;29.83;18.20;;;3.20;99.90;;;;;;4765251;30;20216;-87
2023/01/23 06:55:51;;;;;;;28.57;16.90;;;3.10;99.90;;;;;;4779334;29;20196;-86
2023/01/23 06:58:17;;;;;;;34.13;19.57;;;3.10;99.90;;;;;;4777983;29;20473;-85
2023/01/23 07:00:43;;;;;;;30.77;16.73;;;3.10;99.90;;;;;;4766480;30;20240;-87
2023/01/23 07:03:13;;;;;;;31.87;18.90;;;3.00;99.90;;;;;;4768302;30;20477;-87
2023/01/23 07:05:42;;;;;;;29.48;17.85;;;3.00;99.90;;;;;;4767511;30;20465;-86
2023/01/23 07:08:07;;;;;;;33.05;18.45;;;3.00;99.90;;;;;;4766570;30;20220;-86
2023/01/23 07:10:36;;;;;;;30.83;17.13;;;3.00;99.90;;;;;;4766054;30;20882;-86
2023/01/23 07:13:11;;;;;;;32.70;18.40;;;3.00;99.90;;;;;;4767454;30;20475;-87
2023/01/23 07:15:37;;;;;;;32.38;17.38;;;3.00;99.90;;;;;;4766741;30;20211;-86
2023/01/23 07:18:02;;;;;;;30.20;17.10;;;3.00;99.90;;;;;;4781227;30;20374;-86
2023/01/23 07:20:45;;;;;;;28.60;17.93;;;3.00;99.90;;;;;;4769042;30;20443;-87
2023/01/23 07:23:11;;;;;;;26.63;17.25;;;3.10;99.90;;;;;;4765509;30;20866;-87
2023/01/23 07:26:02;;;;;;;30.87;16.47;;;3.10;99.90;;;;;;4781430;30;20289;-86
2023/01/23 07:28:28;;;;;;;31.38;16.13;;;3.30;99.90;;;;;;4778749;30;20599;-87
2023/01/23 07:30:54;;;;;;;28.90;16.58;;;3.40;99.90;;;;;;4767425;30;20200;-88
2023/01/23 07:33:19;;;;;;;25.07;15.67;;;3.50;99.90;;;;;;4768597;30;20325;-87
2023/01/23 07:35:45;;;;;;;24.53;14.77;;;3.50;99.90;;;;;;4768422;30;20226;-88
2023/01/23 07:38:10;;;;;;;43.00;15.93;;;3.60;99.90;;;;;;4770596;30;20192;-87
2023/01/23 07:40:41;;;;;;;27.67;16.40;;;3.70;99.90;;;;;;4761938;30;20207;-86
2023/01/23 07:43:26;;;;;;;26.48;15.57;;;3.70;99.90;;;;;;4766442;30;20215;-87
2023/01/23 07:45:52;;;;;;;24.13;15.45;;;3.70;99.90;;;;;;4776400;30;20245;-88
2023/01/23 07:48:17;;;;;;;25.92;15.02;;;3.70;99.90;;;;;;4779760;29;20192;-87
2023/01/23 07:50:43;;;;;;;25.53;16.80;;;3.80;99.90;;;;;;4766308;30;20204;-87
2023/01/23 07:53:27;;;;;;;22.40;13.70;;;3.80;99.90;;;;;;4763247;30;20357;-87
2023/01/23 07:55:56;;;;;;;24.08;14.35;;;3.80;95.80;;;;;;4764843;30;20249;-87
2023/01/23 07:58:21;;;;;;;29.60;15.45;;;3.90;54.60;;;;;;4767145;30;20292;-87
2023/01/23 08:00:47;;;;;;;27.40;16.07;;;3.90;21.30;;;;;;4770949;30;20238;-88
2023/01/23 08:03:12;;;;;;;26.17;16.17;;;3.90;1.00;;;;;;4764890;30;20222;-87
2023/01/23 08:05:38;;;;;;;23.00;14.50;;;3.90;1.00;;;;;;4767899;30;20274;-87
2023/01/23 08:08:12;;;;;;;20.90;12.93;;;3.90;1.00;;;;;;4768411;30;20215;-87
2023/01/23 08:10:46;;;;;;;22.98;14.35;;;3.90;1.00;;;;;;4779233;30;20195;-87
2023/01/23 08:13:12;;;;;;;23.83;13.52;;;3.90;1.00;;;;;;4790638;29;20209;-87
2023/01/23 08:15:38;;;;;;;23.97;13.10;;;3.90;1.00;;;;;;4780617;30;20306;-87
2023/01/23 08:18:03;;;;;;;19.83;13.00;;;4.00;1.00;;;;;;4765609;30;20257;-87
2023/01/23 08:20:31;;;;;;;21.47;14.53;;;4.00;1.00;;;;;;4762404;30;20191;-87
2023/01/23 08:22:57;;;;;;;21.45;13.50;;;4.00;1.00;;;;;;4765529;30;20499;-87
2023/01/23 08:25:23;;;;;;;23.67;13.38;;;4.00;1.00;;;;;;4766368;30;20184;-88
2023/01/23 08:27:49;;;;;;;20.80;13.50;;;4.00;1.00;;;;;;4768047;30;20306;-87
2023/01/23 08:30:17;;;;;;;22.37;14.50;;;4.10;1.00;;;;;;4765706;30;20192;-87
2023/01/23 08:32:45;;;;;;;24.40;15.88;;;4.10;1.00;;;;;;4768513;30;20220;-87
2023/01/23 08:35:11;;;;;;;20.23;12.82;;;4.10;1.00;;;;;;4773644;29;20222;-87
2023/01/23 08:37:36;;;;;;;21.00;13.63;;;4.10;1.00;;;;;;4767465;30;20215;-88
2023/01/23 08:40:03;;;;;;;23.87;14.47;;;4.10;99.90;;;;;;4771848;29;20488;-86
2023/01/23 08:42:29;;;;;;;22.80;14.73;;;4.10;99.90;;;;;;4763258;30;20251;-87
2023/01/23 08:44:54;;;;;;;22.53;13.10;;;4.20;99.90;;;;;;4765875;30;20191;-87
2023/01/23 08:47:20;;;;;;;24.27;14.63;;;4.20;99.90;;;;;;4763504;30;20595;-88
2023/01/23 08:49:46;;;;;;;25.57;14.63;;;4.20;99.90;;;;;;4764702;30;20264;-87
2023/01/23 08:52:11;;;;;;;22.60;13.80;;;4.30;99.90;;;;;;4771770;29;20464;-87
2023/01/23 08:54:37;;;;;;;27.03;15.63;;;4.30;99.90;;;;;;4775695;30;20274;-87
2023/01/23 08:57:02;;;;;;;24.10;13.70;;;4.30;99.90;;;;;;4777901;29;20215;-86
2023/01/23 08:59:43;;;;;;;21.97;14.90;;;4.30;2.50;;;;;;4773920;30;20249;-87
2023/01/23 09:02:11;;;;;;;21.92;15.00;;;4.40;54.70;;;;;;4781817;29;20221;-88
2023/01/23 09:04:37;;;;;;;22.58;13.93;;;4.40;3.10;;;;;;4770900;30;20287;-88
2023/01/23 09:07:02;;;;;;;23.50;14.53;;;4.40;1.00;;;;;;4775612;29;20390;-87
2023/01/23 09:09:30;;;;;;;23.40;12.90;;;4.40;1.00;;;;;;4776909;30;20209;-87
2023/01/23 09:11:56;;;;;;;24.63;13.98;;;4.50;1.00;;;;;;4768006;29;20214;-86
2023/01/23 09:14:24;;;;;;;24.07;15.37;;;4.50;1.00;;;;;;4776594;30;20585;-87
2023/01/23 09:16:50;;;;;;;22.02;13.98;;;4.60;1.00;;;;;;4772457;29;20191;-87
2023/01/23 09:19:16;;;;;;;23.97;13.60;;;4.60;1.00;;;;;;4782593;29;20203;-87
2023/01/23 09:21:43;;;;;;;25.47;14.20;;;4.70;99.90;;;;;;4769495;30;20211;-86
2023/01/23 09:24:09;;;;;;;22.10;14.15;;;4.70;97.00;;;;;;4773546;30;20211;-86
2023/01/23 09:26:34;;;;;;;18.80;12.90;;;4.70;1.00;;;;;;4778309;29;20212;-87
2023/01/23 09:29:00;;;;;;;24.07;14.53;;;4.80;1.00;;;;;;4777760;29;20191;-87
2023/01/23 09:31:26;;;;;;;20.30;14.50;;;4.80;99.90;;;;;;4779946;30;20179;-86
2023/01/23 09:33:51;;;;;;;18.27;12.70;;;4.80;1.00;;;;;;4777446;29;20199;-87
2023/01/23 09:36:19;;;;;;;23.77;14.10;;;4.90;99.90;;;;;;4769713;30;20283;-85
2023/01/23 09:38:47;;;;;;;23.73;14.10;;;4.90;99.90;;;;;;4776430;30;20542;-86
2023/01/23 09:41:18;;;;;;;18.77;12.10;;;5.00;1.00;;;;;;4777637;30;20194;-84
2023/01/23 09:44:00;;;;;;;22.60;13.48;;;5.00;99.90;;;;;;4769020;30;20226;-85
2023/01/23 09:47:03;;;;;;;21.48;13.25;;;5.10;99.90;;;;;;4768604;30;20219;-86
2023/01/23 09:49:54;;;;;;;21.65;12.70;;;5.10;99.90;;;;;;4763822;30;20231;-86
2023/01/23 09:52:24;;;;;;;24.42;14.57;;;5.30;1.00;;;;;;4765415;30;20207;-83
2023/01/23 09:55:02;;;;;;;21.67;13.05;;;5.50;1.00;;;;;;4771920;30;20187;-85
2023/01/23 09:57:34;;;;;;;20.88;12.85;;;5.60;99.90;;;;;;4777383;30;20303;-85
2023/01/23 10:00:26;;;;;;;20.27;13.57;;;5.70;88.10;;;;;;4752326;30;20230;-85
2023/01/23 10:02:53;;;;;;;22.48;13.55;;;5.70;1.00;;;;;;4771518;29;20237;-85
2023/01/23 10:05:35;;;;;;;23.17;14.45;;;5.80;1.00;;;;;;4770936;30;20570;-85
2023/01/23 10:08:20;;;;;;;20.10;12.00;;;5.80;99.90;;;;;;4777900;30;20195;-85
2023/01/23 10:11:09;;;;;;;19.55;13.20;;;5.80;99.90;;;;;;4769798;30;20590;-85
2023/01/23 10:14:01;;;;;;;22.73;14.50;;;6.00;99.90;;;;;;4775553;29;20291;-85
2023/01/23 10:16:43;;;;;;;17.98;12.60;;;6.20;99.90;;;;;;4768261;30;20195;-86
2023/01/23 10:19:11;;;;;;;18.50;12.35;;;6.20;1.00;;;;;;4766529;30;20276;-86
2023/01/23 10:22:02;;;;;;;23.17;13.57;;;6.20;1.00;;;;;;4777034;30;20191;-86
2023/01/23 10:24:47;;;;;;;18.23;12.35;;;6.20;99.90;;;;;;4780977;30;20195;-85
2023/01/23 10:27:28;;;;;;;20.40;12.38;;;6.30;1.00;;;;;;4771600;30;20212;-86
2023/01/23 10:30:03;;;;;;;20.73;13.05;;;6.40;1.00;;;;;;4778546;29;20769;-85
2023/01/23 10:32:38;;;;;;;27.90;14.15;;;6.50;1.00;;;;;;4787713;29;20207;-85
2023/01/23 10:35:17;;;;;;;23.58;15.43;;;6.50;99.90;;;;;;4776223;29;20273;-85
2023/01/23 10:37:53;;;;;;;20.98;14.15;;;6.40;74.60;;;;;;4784777;30;20198;-86
2023/01/23 10:43:12;;;;;;;20.23;12.68;;;6.30;76.60;;;;;;4769424;30;20230;-85
2023/01/23 10:45:39;;;;;;;21.77;12.63;;;6.20;27.50;;;;;;4766125;30;20319;-86
2023/01/23 10:48:26;;;;;;;22.15;13.40;;;6.20;26.10;;;;;;4778002;30;20216;-85
2023/01/23 10:50:51;;;;;;;27.70;15.48;;;6.10;1.00;;;;;;4792461;29;20274;-85
2023/01/23 10:53:20;;;;;;;24.10;12.73;;;6.10;1.00;;;;;;4774844;30;20283;-85
2023/01/23 10:55:47;;;;;;;22.50;15.40;;;6.00;62.20;;;;;;4779131;30;20196;-85
2023/01/23 10:58:37;;;;;;;21.15;13.90;;;6.00;94.80;;;;;;4781467;29;20242;-86
2023/01/23 11:01:03;;;;;;;22.75;14.75;;;5.90;99.90;;;;;;4793773;29;20200;-84
2023/01/23 11:03:31;;;;;;;25.67;16.33;;;5.90;99.90;;;;;;4771174;30;20212;-86
2023/01/23 11:06:04;;;;;;;23.77;14.93;;;5.80;99.90;;;;;;4779008;30;20644;-86
2023/01/23 11:08:41;;;;;;;27.02;14.77;;;5.80;99.90;;;;;;4782648;29;20254;-86
2023/01/23 11:11:13;;;;;;;25.10;15.30;;;5.80;99.90;;;;;;4776736;30;20176;-85
2023/01/23 11:13:39;;;;;;;22.13;14.35;;;5.80;99.90;;;;;;4769052;30;20219;-85
2023/01/23 11:16:05;;;;;;;23.45;14.20;;;5.90;99.90;;;;;;4769796;30;20558;-86
2023/01/23 11:18:41;;;;;;;24.90;13.87;;;5.90;99.90;;;;;;4767286;30;20192;-85
2023/01/23 11:21:23;;;;;;;22.70;12.45;;;5.80;99.90;;;;;;4775649;29;20191;-85
2023/01/23 11:24:18;;;;;;;23.75;13.98;;;5.80;99.90;;;;;;4770926;30;20255;-85
2023/01/23 11:26:44;;;;;;;23.70;12.80;;;5.80;99.90;;;;;;4753975;29;20268;-85
2023/01/23 11:29:24;;;;;;;23.73;13.77;;;5.80;99.90;;;;;;4787441;29;20223;-86
2023/01/23 11:32:08;;;;;;;26.40;14.60;;;5.90;99.90;;;;;;4793624;29;20197;-85
2023/01/23 11:34:52;;;;;;;22.48;14.13;;;6.00;99.90;;;;;;4769818;29;20202;-85
2023/01/23 11:37:35;;;;;;;19.13;12.95;;;6.00;88.40;;;;;;4766770;30;20686;-86
2023/01/23 11:40:10;;;;;;;21.77;12.80;;;6.10;99.90;;;;;;4765636;30;20329;-85
2023/01/23 11:42:39;;;;;;;20.13;13.43;;;6.20;33.90;;;;;;4764537;30;20591;-86
2023/01/23 11:45:13;;;;;;;26.90;13.52;;;6.30;26.00;;;;;;4782189;29;20199;-84
2023/01/23 11:47:45;;;;;;;24.08;13.10;;;6.30;1.00;;;;;;4769416;30;20223;-85
2023/01/23 11:50:35;;;;;;;26.88;15.57;;;6.30;1.00;;;;;;4775527;30;20201;-85
2023/01/23 11:53:04;;;;;;;39.80;21.35;;;6.30;1.00;;;;;;4774883;30;20208;-86
2023/01/23 11:55:42;;;;;;;32.15;17.60;;;6.30;1.00;;;;;;4771703;30;20187;-85
2023/01/23 11:58:39;;;;;;;24.20;13.40;;;6.40;1.00;;;;;;4764308;30;20207;-85
2023/01/23 12:01:17;;;;;;;21.13;13.40;;;6.50;1.00;;;;;;4763299;30;20231;-85
2023/01/23 12:03:55;;;;;;;21.17;12.15;;;6.50;1.00;;;;;;4768546;30;20310;-84
2023/01/23 12:06:46;;;;;;;20.80;11.75;;;6.60;1.00;;;;;;4766670;30;20219;-84
2023/01/23 12:09:15;;;;;;;23.15;10.90;;;6.60;99.90;;;;;;4765391;30;20188;-84
2023/01/23 12:12:07;;;;;;;18.15;10.50;;;6.60;99.90;;;;;;4767262;30;20188;-84
2023/01/23 12:14:41;;;;;;;20.10;12.35;;;6.60;99.90;;;;;;4768054;30;20191;-85
2023/01/23 12:17:27;;;;;;;17.27;11.38;;;6.50;99.90;;;;;;4767622;30;20312;-84
2023/01/23 12:20:21;;;;;;;19.67;11.32;;;6.50;99.90;;;;;;4768837;30;20202;-85
2023/01/23 12:23:01;;;;;;;17.88;11.07;;;6.60;99.90;;;;;;4765718;30;20653;-85
2023/01/23 12:25:34;;;;;;;21.38;13.10;;;6.50;99.90;;;;;;4763155;30;20209;-84
2023/01/23 12:28:14;;;;;;;21.27;12.73;;;6.50;99.90;;;;;;4758421;30;20610;-85
2023/01/23 12:30:49;;;;;;;18.50;12.90;;;6.50;99.90;;;;;;4763065;30;20204;-84
2023/01/23 12:33:23;;;;;;;20.63;13.80;;;6.50;99.90;;;;;;4764417;30;20206;-85
2023/01/23 12:36:04;;;;;;;19.30;12.45;;;6.50;99.90;;;;;;4766155;30;20203;-86
2023/01/23 12:38:33;;;;;;;19.60;11.57;;;6.50;99.90;;;;;;4766431;30;20203;-86
2023/01/23 12:41:12;;;;;;;19.15;12.63;;;6.60;99.90;;;;;;4763789;30;20188;-86
2023/01/23 12:44:09;;;;;;;20.70;13.40;;;6.60;99.90;;;;;;4767255;30;20245;-86
2023/01/23 12:46:58;;;;;;;19.05;11.00;;;6.70;99.90;;;;;;4742448;30;20267;-86
2023/01/23 12:49:49;;;;;;;17.55;11.55;;;6.70;99.90;;;;;;4762844;30;20197;-86
2023/01/23 12:52:37;;;;;;;18.38;10.38;;;6.80;99.90;;;;;;4760832;30;20235;-86
2023/01/23 12:55:30;;;;;;;19.95;11.70;;;6.90;99.90;;;;;;4785650;30;20244;-87
2023/01/23 12:57:58;;;;;;;16.90;10.77;;;6.90;99.90;;;;;;4787037;30;20223;-87
2023/01/23 13:00:54;;;;;;;21.55;11.50;;;6.90;99.90;;;;;;4787480;30;20441;-86
2023/01/23 13:03:58;;;;;;;15.70;10.65;;;7.00;99.90;;;;;;4780450;30;20203;-88